Terminal Aerodrome Forecast
Issued by NWS

Home | Current Version | Previous Version | Text Only | Print | Product List | Glossary On
Versions: 1 2 3 4 5 6 7 8 9 10 11 12 13 14 15 16 17 18 19 20 21 22
000
FTUS41 KALY 310500
TAFPSF
TAF
KPSF 310526Z 3106/0106 30015G25KT P6SM SCT025 BKN035
     FM311400 31015G25KT P6SM SCT040
     FM312300 30012G17KT P6SM FEW035 SCT050
     FM010400 29007KT P6SM BKN040=

USA.gov is the U.S. government's official web portal to all federal, state and local government web resources and services.